sensor_id;sensor_type;location;lat;lon;timestamp;P1;durP1;ratioP1;P2;durP2;ratioP2
75898;SDS011;64576;50.460;4.866;2023-01-01T00:02:12;5.97;;;2.03;;
75898;SDS011;64576;50.460;4.866;2023-01-01T00:04:38;6.28;;;2.80;;
75898;SDS011;64576;50.460;4.866;2023-01-01T00:07:03;7.45;;;2.42;;
75898;SDS011;64576;50.460;4.866;2023-01-01T00:09:28;5.57;;;2.60;;
75898;SDS011;64576;50.460;4.866;2023-01-01T00:12:12;9.18;;;2.67;;
75898;SDS011;64576;50.460;4.866;2023-01-01T00:14:38;7.47;;;3.10;;
75898;SDS011;64576;50.460;4.866;2023-01-01T00:17:03;6.95;;;2.90;;
75898;SDS011;64576;50.460;4.866;2023-01-01T00:19:29;6.57;;;2.65;;
75898;SDS011;64576;50.460;4.866;2023-01-01T00:21:54;8.43;;;3.10;;
75898;SDS011;64576;50.460;4.866;2023-01-01T00:24:20;6.18;;;2.17;;
75898;SDS011;64576;50.460;4.866;2023-01-01T00:26:45;6.22;;;2.42;;
75898;SDS011;64576;50.460;4.866;2023-01-01T00:29:11;9.15;;;2.75;;
75898;SDS011;64576;50.460;4.866;2023-01-01T00:31:36;6.28;;;2.40;;
75898;SDS011;64576;50.460;4.866;2023-01-01T00:34:01;5.28;;;2.28;;
75898;SDS011;64576;50.460;4.866;2023-01-01T00:36:27;5.47;;;2.30;;
75898;SDS011;64576;50.460;4.866;2023-01-01T00:38:53;4.75;;;2.40;;
75898;SDS011;64576;50.460;4.866;2023-01-01T00:41:19;10.52;;;2.55;;
75898;SDS011;64576;50.460;4.866;2023-01-01T00:43:45;7.80;;;3.33;;
75898;SDS011;64576;50.460;4.866;2023-01-01T00:46:11;7.43;;;2.40;;
75898;SDS011;64576;50.460;4.866;2023-01-01T00:48:37;7.65;;;2.25;;
75898;SDS011;64576;50.460;4.866;2023-01-01T00:51:03;6.70;;;2.58;;
75898;SDS011;64576;50.460;4.866;2023-01-01T00:53:29;7.82;;;2.63;;
75898;SDS011;64576;50.460;4.866;2023-01-01T00:55:55;8.07;;;2.72;;
75898;SDS011;64576;50.460;4.866;2023-01-01T00:58:21;4.03;;;1.98;;
75898;SDS011;64576;50.460;4.866;2023-01-01T01:00:48;7.22;;;2.80;;
75898;SDS011;64576;50.460;4.866;2023-01-01T01:03:14;5.30;;;2.83;;
75898;SDS011;64576;50.460;4.866;2023-01-01T01:05:56;7.05;;;2.45;;
75898;SDS011;64576;50.460;4.866;2023-01-01T01:08:24;10.43;;;2.40;;
75898;SDS011;64576;50.460;4.866;2023-01-01T01:10:51;7.88;;;2.83;;
75898;SDS011;64576;50.460;4.866;2023-01-01T01:13:17;5.15;;;2.25;;
75898;SDS011;64576;50.460;4.866;2023-01-01T01:15:42;6.60;;;2.22;;
75898;SDS011;64576;50.460;4.866;2023-01-01T01:18:07;6.22;;;2.95;;
75898;SDS011;64576;50.460;4.866;2023-01-01T01:20:33;11.93;;;3.58;;
75898;SDS011;64576;50.460;4.866;2023-01-01T01:22:58;6.22;;;3.03;;
75898;SDS011;64576;50.460;4.866;2023-01-01T01:25:24;7.60;;;2.60;;
75898;SDS011;64576;50.460;4.866;2023-01-01T01:27:49;6.47;;;2.42;;
75898;SDS011;64576;50.460;4.866;2023-01-01T01:30:14;7.40;;;2.58;;
75898;SDS011;64576;50.460;4.866;2023-01-01T01:32:40;6.25;;;2.70;;
75898;SDS011;64576;50.460;4.866;2023-01-01T01:35:05;7.70;;;2.90;;
75898;SDS011;64576;50.460;4.866;2023-01-01T01:37:31;6.80;;;2.60;;
75898;SDS011;64576;50.460;4.866;2023-01-01T01:39:56;8.07;;;2.45;;
75898;SDS011;64576;50.460;4.866;2023-01-01T01:42:22;7.32;;;2.35;;
75898;SDS011;64576;50.460;4.866;2023-01-01T01:52:39;7.70;;;3.00;;
75898;SDS011;64576;50.460;4.866;2023-01-01T01:55:08;9.13;;;3.22;;
75898;SDS011;64576;50.460;4.866;2023-01-01T01:57:35;7.28;;;2.33;;
75898;SDS011;64576;50.460;4.866;2023-01-01T02:00:02;7.45;;;2.50;;
75898;SDS011;64576;50.460;4.866;2023-01-01T02:02:44;9.25;;;2.63;;
75898;SDS011;64576;50.460;4.866;2023-01-01T02:05:17;11.60;;;3.22;;
75898;SDS011;64576;50.460;4.866;2023-01-01T02:07:44;8.77;;;3.00;;
75898;SDS011;64576;50.460;4.866;2023-01-01T02:10:10;7.50;;;3.00;;
75898;SDS011;64576;50.460;4.866;2023-01-01T02:12:35;7.60;;;2.22;;
75898;SDS011;64576;50.460;4.866;2023-01-01T02:15:00;7.57;;;2.97;;
75898;SDS011;64576;50.460;4.866;2023-01-01T02:17:28;10.20;;;3.40;;
75898;SDS011;64576;50.460;4.866;2023-01-01T02:30:32;10.88;;;3.35;;
75898;SDS011;64576;50.460;4.866;2023-01-01T02:33:08;9.55;;;3.05;;
75898;SDS011;64576;50.460;4.866;2023-01-01T02:35:39;5.93;;;2.67;;
75898;SDS011;64576;50.460;4.866;2023-01-01T02:38:16;8.75;;;2.90;;
75898;SDS011;64576;50.460;4.866;2023-01-01T02:40:52;6.00;;;2.75;;
75898;SDS011;64576;50.460;4.866;2023-01-01T02:43:21;7.65;;;3.20;;
75898;SDS011;64576;50.460;4.866;2023-01-01T02:45:47;6.93;;;2.70;;
75898;SDS011;64576;50.460;4.866;2023-01-01T02:51:08;6.32;;;2.45;;
75898;SDS011;64576;50.460;4.866;2023-01-01T02:53:55;6.07;;;2.95;;
75898;SDS011;64576;50.460;4.866;2023-01-01T02:57:08;7.93;;;2.38;;
75898;SDS011;64576;50.460;4.866;2023-01-01T03:02:46;9.13;;;3.08;;
75898;SDS011;64576;50.460;4.866;2023-01-01T03:08:03;7.28;;;2.92;;
75898;SDS011;64576;50.460;4.866;2023-01-01T03:10:40;5.82;;;2.58;;
75898;SDS011;64576;50.460;4.866;2023-01-01T03:16:13;13.43;;;3.90;;
75898;SDS011;64576;50.460;4.866;2023-01-01T03:18:58;8.60;;;2.85;;
75898;SDS011;64576;50.460;4.866;2023-01-01T03:21:42;6.47;;;2.72;;
75898;SDS011;64576;50.460;4.866;2023-01-01T03:24:12;7.32;;;2.75;;
75898;SDS011;64576;50.460;4.866;2023-01-01T03:26:42;6.50;;;2.38;;
75898;SDS011;64576;50.460;4.866;2023-01-01T03:29:12;7.10;;;2.85;;
75898;SDS011;64576;50.460;4.866;2023-01-01T03:31:38;6.97;;;2.83;;
75898;SDS011;64576;50.460;4.866;2023-01-01T03:34:11;9.35;;;3.13;;
75898;SDS011;64576;50.460;4.866;2023-01-01T03:36:43;8.80;;;3.53;;
75898;SDS011;64576;50.460;4.866;2023-01-01T03:39:19;6.93;;;2.55;;
75898;SDS011;64576;50.460;4.866;2023-01-01T03:41:55;8.18;;;3.42;;
75898;SDS011;64576;50.460;4.866;2023-01-01T03:44:31;10.25;;;2.42;;
75898;SDS011;64576;50.460;4.866;2023-01-01T03:46:59;9.82;;;3.00;;
75898;SDS011;64576;50.460;4.866;2023-01-01T03:49:26;6.97;;;2.67;;
75898;SDS011;64576;50.460;4.866;2023-01-01T04:00:23;7.68;;;3.03;;
75898;SDS011;64576;50.460;4.866;2023-01-01T04:02:59;6.80;;;3.10;;
75898;SDS011;64576;50.460;4.866;2023-01-01T04:05:28;6.05;;;2.75;;
75898;SDS011;64576;50.460;4.866;2023-01-01T04:07:55;8.80;;;3.03;;
75898;SDS011;64576;50.460;4.866;2023-01-01T04:10:24;8.73;;;3.35;;
75898;SDS011;64576;50.460;4.866;2023-01-01T04:12:52;7.28;;;3.05;;
75898;SDS011;64576;50.460;4.866;2023-01-01T04:15:21;8.20;;;3.60;;
75898;SDS011;64576;50.460;4.866;2023-01-01T04:17:48;9.15;;;3.17;;
75898;SDS011;64576;50.460;4.866;2023-01-01T04:20:14;9.25;;;3.33;;
75898;SDS011;64576;50.460;4.866;2023-01-01T04:22:40;10.07;;;2.90;;
75898;SDS011;64576;50.460;4.866;2023-01-01T04:25:05;8.98;;;3.60;;
75898;SDS011;64576;50.460;4.866;2023-01-01T04:27:32;6.22;;;2.78;;
75898;SDS011;64576;50.460;4.866;2023-01-01T04:29:57;11.00;;;3.17;;
75898;SDS011;64576;50.460;4.866;2023-01-01T04:32:23;6.13;;;3.25;;
75898;SDS011;64576;50.460;4.866;2023-01-01T04:34:48;10.40;;;3.25;;
75898;SDS011;64576;50.460;4.866;2023-01-01T04:37:13;8.13;;;3.40;;
75898;SDS011;64576;50.460;4.866;2023-01-01T04:39:39;8.32;;;3.33;;
75898;SDS011;64576;50.460;4.866;2023-01-01T04:42:05;6.50;;;2.75;;
75898;SDS011;64576;50.460;4.866;2023-01-01T04:44:30;9.77;;;3.20;;
75898;SDS011;64576;50.460;4.866;2023-01-01T04:46:56;7.60;;;3.45;;
75898;SDS011;64576;50.460;4.866;2023-01-01T04:49:21;8.70;;;3.10;;
75898;SDS011;64576;50.460;4.866;2023-01-01T04:51:47;7.47;;;3.38;;
75898;SDS011;64576;50.460;4.866;2023-01-01T04:54:12;6.00;;;2.55;;
75898;SDS011;64576;50.460;4.866;2023-01-01T04:56:38;9.45;;;3.80;;
75898;SDS011;64576;50.460;4.866;2023-01-01T04:59:03;11.00;;;4.90;;
75898;SDS011;64576;50.460;4.866;2023-01-01T05:01:29;9.60;;;4.93;;
75898;SDS011;64576;50.460;4.866;2023-01-01T05:03:55;7.93;;;3.70;;
75898;SDS011;64576;50.460;4.866;2023-01-01T05:06:21;6.70;;;3.35;;
75898;SDS011;64576;50.460;4.866;2023-01-01T05:08:49;8.50;;;2.97;;
75898;SDS011;64576;50.460;4.866;2023-01-01T05:11:17;9.98;;;2.97;;
75898;SDS011;64576;50.460;4.866;2023-01-01T05:13:45;11.82;;;3.58;;
75898;SDS011;64576;50.460;4.866;2023-01-01T05:16:13;11.18;;;3.97;;
75898;SDS011;64576;50.460;4.866;2023-01-01T05:18:40;5.95;;;3.25;;
75898;SDS011;64576;50.460;4.866;2023-01-01T05:21:08;11.65;;;2.97;;
75898;SDS011;64576;50.460;4.866;2023-01-01T05:23:35;10.15;;;3.42;;
75898;SDS011;64576;50.460;4.866;2023-01-01T05:26:07;10.80;;;4.05;;
75898;SDS011;64576;50.460;4.866;2023-01-01T05:28:37;7.32;;;2.88;;
75898;SDS011;64576;50.460;4.866;2023-01-01T05:31:10;7.55;;;2.90;;
75898;SDS011;64576;50.460;4.866;2023-01-01T05:33:38;7.57;;;3.25;;
75898;SDS011;64576;50.460;4.866;2023-01-01T05:36:04;9.52;;;3.80;;
75898;SDS011;64576;50.460;4.866;2023-01-01T05:38:31;9.88;;;2.90;;
75898;SDS011;64576;50.460;4.866;2023-01-01T05:40:57;7.18;;;3.50;;
75898;SDS011;64576;50.460;4.866;2023-01-01T05:43:22;9.27;;;3.58;;
75898;SDS011;64576;50.460;4.866;2023-01-01T05:45:48;10.60;;;3.15;;
75898;SDS011;64576;50.460;4.866;2023-01-01T05:48:13;9.70;;;4.00;;
75898;SDS011;64576;50.460;4.866;2023-01-01T05:50:39;10.25;;;3.20;;
75898;SDS011;64576;50.460;4.866;2023-01-01T05:53:04;7.68;;;3.55;;
75898;SDS011;64576;50.460;4.866;2023-01-01T05:55:30;9.85;;;4.00;;
75898;SDS011;64576;50.460;4.866;2023-01-01T05:57:55;9.90;;;4.40;;
75898;SDS011;64576;50.460;4.866;2023-01-01T06:00:21;6.63;;;3.53;;
75898;SDS011;64576;50.460;4.866;2023-01-01T06:02:46;9.60;;;4.03;;
75898;SDS011;64576;50.460;4.866;2023-01-01T06:05:14;11.07;;;4.32;;
75898;SDS011;64576;50.460;4.866;2023-01-01T06:07:39;8.90;;;4.65;;
75898;SDS011;64576;50.460;4.866;2023-01-01T06:10:04;9.57;;;3.05;;
75898;SDS011;64576;50.460;4.866;2023-01-01T06:12:30;10.32;;;4.57;;
75898;SDS011;64576;50.460;4.866;2023-01-01T06:14:55;11.82;;;4.03;;
75898;SDS011;64576;50.460;4.866;2023-01-01T06:17:21;10.27;;;4.57;;
75898;SDS011;64576;50.460;4.866;2023-01-01T06:19:46;10.38;;;4.75;;
75898;SDS011;64576;50.460;4.866;2023-01-01T06:22:12;13.05;;;4.40;;
75898;SDS011;64576;50.460;4.866;2023-01-01T06:24:37;10.18;;;4.95;;
75898;SDS011;64576;50.460;4.866;2023-01-01T06:27:03;12.25;;;4.15;;
75898;SDS011;64576;50.460;4.866;2023-01-01T06:29:28;7.53;;;3.40;;
75898;SDS011;64576;50.460;4.866;2023-01-01T06:31:53;10.02;;;4.15;;
75898;SDS011;64576;50.460;4.866;2023-01-01T06:34:19;9.48;;;4.65;;
75898;SDS011;64576;50.460;4.866;2023-01-01T06:36:44;13.60;;;5.25;;
75898;SDS011;64576;50.460;4.866;2023-01-01T06:39:09;13.23;;;4.47;;
75898;SDS011;64576;50.460;4.866;2023-01-01T06:41:35;9.95;;;4.57;;
75898;SDS011;64576;50.460;4.866;2023-01-01T06:44:00;9.00;;;4.00;;
75898;SDS011;64576;50.460;4.866;2023-01-01T06:46:27;11.63;;;4.05;;
75898;SDS011;64576;50.460;4.866;2023-01-01T06:48:57;13.38;;;4.85;;
75898;SDS011;64576;50.460;4.866;2023-01-01T06:51:29;12.70;;;4.90;;
75898;SDS011;64576;50.460;4.866;2023-01-01T06:54:01;10.77;;;4.70;;
75898;SDS011;64576;50.460;4.866;2023-01-01T06:56:27;12.15;;;5.15;;
75898;SDS011;64576;50.460;4.866;2023-01-01T06:58:53;12.93;;;5.88;;
75898;SDS011;64576;50.460;4.866;2023-01-01T07:01:23;13.48;;;4.65;;
75898;SDS011;64576;50.460;4.866;2023-01-01T07:03:50;11.48;;;5.18;;
75898;SDS011;64576;50.460;4.866;2023-01-01T07:06:17;14.20;;;4.47;;
75898;SDS011;64576;50.460;4.866;2023-01-01T07:08:43;10.10;;;4.32;;
75898;SDS011;64576;50.460;4.866;2023-01-01T07:11:08;10.82;;;4.35;;
75898;SDS011;64576;50.460;4.866;2023-01-01T07:13:34;11.23;;;4.75;;
75898;SDS011;64576;50.460;4.866;2023-01-01T07:15:59;9.63;;;4.80;;
75898;SDS011;64576;50.460;4.866;2023-01-01T07:18:24;12.50;;;4.07;;
75898;SDS011;64576;50.460;4.866;2023-01-01T07:20:50;10.18;;;4.90;;
75898;SDS011;64576;50.460;4.866;2023-01-01T07:23:18;7.30;;;3.22;;
75898;SDS011;64576;50.460;4.866;2023-01-01T07:25:43;9.63;;;3.50;;
75898;SDS011;64576;50.460;4.866;2023-01-01T07:28:08;10.82;;;4.47;;
75898;SDS011;64576;50.460;4.866;2023-01-01T07:30:34;11.55;;;5.10;;
75898;SDS011;64576;50.460;4.866;2023-01-01T07:32:59;14.30;;;5.00;;
75898;SDS011;64576;50.460;4.866;2023-01-01T07:35:25;14.38;;;5.32;;
75898;SDS011;64576;50.460;4.866;2023-01-01T07:37:50;14.68;;;4.75;;
75898;SDS011;64576;50.460;4.866;2023-01-01T07:40:15;13.27;;;4.93;;
75898;SDS011;64576;50.460;4.866;2023-01-01T07:42:41;10.18;;;4.20;;
75898;SDS011;64576;50.460;4.866;2023-01-01T07:45:06;15.13;;;5.43;;
75898;SDS011;64576;50.460;4.866;2023-01-01T07:47:33;11.60;;;5.45;;
75898;SDS011;64576;50.460;4.866;2023-01-01T07:49:58;12.05;;;5.97;;
75898;SDS011;64576;50.460;4.866;2023-01-01T07:52:23;13.95;;;5.45;;
75898;SDS011;64576;50.460;4.866;2023-01-01T07:54:49;9.43;;;4.18;;
75898;SDS011;64576;50.460;4.866;2023-01-01T07:57:14;9.88;;;4.80;;
75898;SDS011;64576;50.460;4.866;2023-01-01T07:59:40;16.20;;;5.55;;
75898;SDS011;64576;50.460;4.866;2023-01-01T08:02:05;10.50;;;4.47;;
75898;SDS011;64576;50.460;4.866;2023-01-01T08:04:30;18.35;;;4.65;;
75898;SDS011;64576;50.460;4.866;2023-01-01T08:06:56;10.43;;;4.38;;
75898;SDS011;64576;50.460;4.866;2023-01-01T08:09:22;10.00;;;4.63;;
75898;SDS011;64576;50.460;4.866;2023-01-01T08:11:47;12.15;;;4.68;;
75898;SDS011;64576;50.460;4.866;2023-01-01T08:14:12;11.20;;;4.43;;
75898;SDS011;64576;50.460;4.866;2023-01-01T08:16:38;12.60;;;5.00;;
75898;SDS011;64576;50.460;4.866;2023-01-01T08:19:03;11.57;;;4.30;;
75898;SDS011;64576;50.460;4.866;2023-01-01T08:21:29;10.13;;;3.63;;
75898;SDS011;64576;50.460;4.866;2023-01-01T08:23:54;8.80;;;4.20;;
75898;SDS011;64576;50.460;4.866;2023-01-01T08:26:27;9.15;;;4.30;;
75898;SDS011;64576;50.460;4.866;2023-01-01T08:28:54;8.68;;;4.38;;
75898;SDS011;64576;50.460;4.866;2023-01-01T08:31:20;10.30;;;4.32;;
75898;SDS011;64576;50.460;4.866;2023-01-01T08:33:45;9.27;;;3.72;;
75898;SDS011;64576;50.460;4.866;2023-01-01T08:36:11;11.20;;;4.60;;
75898;SDS011;64576;50.460;4.866;2023-01-01T08:38:38;15.43;;;5.35;;
75898;SDS011;64576;50.460;4.866;2023-01-01T08:41:03;10.32;;;3.97;;
75898;SDS011;64576;50.460;4.866;2023-01-01T08:43:28;10.70;;;3.97;;
75898;SDS011;64576;50.460;4.866;2023-01-01T08:45:54;9.07;;;4.20;;
75898;SDS011;64576;50.460;4.866;2023-01-01T08:48:19;14.95;;;4.55;;
75898;SDS011;64576;50.460;4.866;2023-01-01T08:50:50;10.18;;;3.85;;
75898;SDS011;64576;50.460;4.866;2023-01-01T08:53:17;10.27;;;3.40;;
75898;SDS011;64576;50.460;4.866;2023-01-01T08:55:42;9.85;;;4.45;;
75898;SDS011;64576;50.460;4.866;2023-01-01T08:58:07;10.48;;;4.55;;
75898;SDS011;64576;50.460;4.866;2023-01-01T09:00:33;9.02;;;3.35;;
75898;SDS011;64576;50.460;4.866;2023-01-01T09:02:58;11.48;;;3.95;;
75898;SDS011;64576;50.460;4.866;2023-01-01T09:05:24;12.40;;;4.85;;
75898;SDS011;64576;50.460;4.866;2023-01-01T09:07:49;9.95;;;3.70;;
75898;SDS011;64576;50.460;4.866;2023-01-01T09:10:14;14.05;;;4.85;;
75898;SDS011;64576;50.460;4.866;2023-01-01T09:12:40;11.05;;;4.47;;
75898;SDS011;64576;50.460;4.866;2023-01-01T09:15:05;10.40;;;3.97;;
75898;SDS011;64576;50.460;4.866;2023-01-01T09:17:31;10.85;;;3.95;;
75898;SDS011;64576;50.460;4.866;2023-01-01T09:19:56;10.98;;;3.63;;
75898;SDS011;64576;50.460;4.866;2023-01-01T09:22:21;10.57;;;3.65;;
75898;SDS011;64576;50.460;4.866;2023-01-01T09:24:47;12.85;;;3.90;;
75898;SDS011;64576;50.460;4.866;2023-01-01T09:27:12;10.50;;;3.88;;
75898;SDS011;64576;50.460;4.866;2023-01-01T09:29:37;20.45;;;5.60;;
75898;SDS011;64576;50.460;4.866;2023-01-01T09:32:03;14.40;;;4.68;;
75898;SDS011;64576;50.460;4.866;2023-01-01T09:34:28;9.07;;;3.60;;
75898;SDS011;64576;50.460;4.866;2023-01-01T09:36:54;12.77;;;4.57;;
75898;SDS011;64576;50.460;4.866;2023-01-01T09:39:19;11.02;;;4.13;;
75898;SDS011;64576;50.460;4.866;2023-01-01T09:41:56;15.55;;;4.32;;
75898;SDS011;64576;50.460;4.866;2023-01-01T09:47:45;10.52;;;4.47;;
75898;SDS011;64576;50.460;4.866;2023-01-01T09:50:17;9.90;;;2.70;;
75898;SDS011;64576;50.460;4.866;2023-01-01T09:55:29;9.73;;;4.25;;
75898;SDS011;64576;50.460;4.866;2023-01-01T09:58:02;10.00;;;4.00;;
75898;SDS011;64576;50.460;4.866;2023-01-01T10:00:27;10.00;;;3.83;;
75898;SDS011;64576;50.460;4.866;2023-01-01T10:03:09;8.88;;;3.60;;
75898;SDS011;64576;50.460;4.866;2023-01-01T10:05:48;11.25;;;4.32;;
75898;SDS011;64576;50.460;4.866;2023-01-01T10:08:39;14.70;;;3.83;;
75898;SDS011;64576;50.460;4.866;2023-01-01T10:11:19;9.15;;;3.58;;
75898;SDS011;64576;50.460;4.866;2023-01-01T10:14:00;12.20;;;3.90;;
75898;SDS011;64576;50.460;4.866;2023-01-01T10:19:12;13.52;;;3.97;;
75898;SDS011;64576;50.460;4.866;2023-01-01T10:21:48;9.05;;;3.78;;
75898;SDS011;64576;50.460;4.866;2023-01-01T10:26:51;10.40;;;4.60;;
75898;SDS011;64576;50.460;4.866;2023-01-01T10:29:23;9.48;;;3.75;;
75898;SDS011;64576;50.460;4.866;2023-01-01T10:31:59;10.13;;;3.80;;
75898;SDS011;64576;50.460;4.866;2023-01-01T10:34:41;10.95;;;3.55;;
75898;SDS011;64576;50.460;4.866;2023-01-01T10:37:07;10.55;;;3.30;;
75898;SDS011;64576;50.460;4.866;2023-01-01T10:39:33;12.70;;;4.32;;
75898;SDS011;64576;50.460;4.866;2023-01-01T10:41:59;10.70;;;3.58;;
75898;SDS011;64576;50.460;4.866;2023-01-01T10:44:30;8.93;;;3.83;;
75898;SDS011;64576;50.460;4.866;2023-01-01T10:46:58;8.68;;;3.42;;
75898;SDS011;64576;50.460;4.866;2023-01-01T10:49:29;11.27;;;3.78;;
75898;SDS011;64576;50.460;4.866;2023-01-01T10:51:54;6.70;;;3.45;;
75898;SDS011;64576;50.460;4.866;2023-01-01T10:57:19;13.90;;;3.73;;
75898;SDS011;64576;50.460;4.866;2023-01-01T10:59:54;8.40;;;4.72;;
75898;SDS011;64576;50.460;4.866;2023-01-01T11:02:36;11.63;;;3.20;;
75898;SDS011;64576;50.460;4.866;2023-01-01T11:05:15;11.80;;;4.28;;
75898;SDS011;64576;50.460;4.866;2023-01-01T11:07:43;8.13;;;3.35;;
75898;SDS011;64576;50.460;4.866;2023-01-01T11:10:16;9.18;;;3.28;;
75898;SDS011;64576;50.460;4.866;2023-01-01T11:12:46;9.45;;;3.38;;
75898;SDS011;64576;50.460;4.866;2023-01-01T11:15:23;12.05;;;3.30;;
75898;SDS011;64576;50.460;4.866;2023-01-01T11:18:15;14.30;;;4.47;;
75898;SDS011;64576;50.460;4.866;2023-01-01T11:20:53;10.27;;;2.92;;
75898;SDS011;64576;50.460;4.866;2023-01-01T11:28:26;11.75;;;3.55;;
75898;SDS011;64576;50.460;4.866;2023-01-01T11:31:06;11.95;;;2.85;;
75898;SDS011;64576;50.460;4.866;2023-01-01T11:33:59;9.80;;;3.30;;
75898;SDS011;64576;50.460;4.866;2023-01-01T11:36:28;7.95;;;3.40;;
75898;SDS011;64576;50.460;4.866;2023-01-01T11:41:47;12.43;;;3.83;;
75898;SDS011;64576;50.460;4.866;2023-01-01T11:44:24;10.93;;;3.25;;
75898;SDS011;64576;50.460;4.866;2023-01-01T11:46:50;12.60;;;3.55;;
75898;SDS011;64576;50.460;4.866;2023-01-01T11:49:20;13.27;;;4.15;;
75898;SDS011;64576;50.460;4.866;2023-01-01T11:51:47;7.97;;;3.83;;
75898;SDS011;64576;50.460;4.866;2023-01-01T11:57:08;15.60;;;3.55;;
75898;SDS011;64576;50.460;4.866;2023-01-01T11:59:51;12.48;;;3.00;;
75898;SDS011;64576;50.460;4.866;2023-01-01T12:02:33;7.75;;;3.08;;
75898;SDS011;64576;50.460;4.866;2023-01-01T12:05:09;9.50;;;2.33;;
75898;SDS011;64576;50.460;4.866;2023-01-01T12:07:40;10.35;;;2.80;;
75898;SDS011;64576;50.460;4.866;2023-01-01T12:10:16;10.70;;;3.00;;
75898;SDS011;64576;50.460;4.866;2023-01-01T12:12:50;7.13;;;2.60;;
75898;SDS011;64576;50.460;4.866;2023-01-01T12:20:36;15.68;;;4.93;;
75898;SDS011;64576;50.460;4.866;2023-01-01T12:23:06;12.53;;;3.43;;
75898;SDS011;64576;50.460;4.866;2023-01-01T12:25:36;11.90;;;2.80;;
75898;SDS011;64576;50.460;4.866;2023-01-01T12:28:27;14.95;;;3.35;;
75898;SDS011;64576;50.460;4.866;2023-01-01T12:47:42;13.55;;;3.25;;
75898;SDS011;64576;50.460;4.866;2023-01-01T13:01:27;8.45;;;2.70;;
75898;SDS011;64576;50.460;4.866;2023-01-01T13:06:23;10.27;;;3.10;;
75898;SDS011;64576;50.460;4.866;2023-01-01T13:08:56;9.75;;;2.45;;
75898;SDS011;64576;50.460;4.866;2023-01-01T13:11:30;7.97;;;3.13;;
75898;SDS011;64576;50.460;4.866;2023-01-01T13:13:57;9.13;;;3.00;;
75898;SDS011;64576;50.460;4.866;2023-01-01T13:16:31;6.55;;;2.70;;
75898;SDS011;64576;50.460;4.866;2023-01-01T13:19:01;13.20;;;3.03;;
75898;SDS011;64576;50.460;4.866;2023-01-01T13:21:27;11.75;;;3.67;;
75898;SDS011;64576;50.460;4.866;2023-01-01T13:23:55;13.80;;;3.05;;
75898;SDS011;64576;50.460;4.866;2023-01-01T13:43:26;7.95;;;3.05;;
75898;SDS011;64576;50.460;4.866;2023-01-01T13:45:31;6.40;;;2.15;;
75898;SDS011;64576;50.460;4.866;2023-01-01T14:02:54;8.82;;;2.10;;
75898;SDS011;64576;50.460;4.866;2023-01-01T14:07:49;10.00;;;2.67;;
75898;SDS011;64576;50.460;4.866;2023-01-01T14:10:30;12.82;;;2.78;;
75898;SDS011;64576;50.460;4.866;2023-01-01T14:13:18;7.43;;;2.88;;
75898;SDS011;64576;50.460;4.866;2023-01-01T14:20:55;8.63;;;2.97;;
75898;SDS011;64576;50.460;4.866;2023-01-01T14:23:38;11.45;;;2.60;;
75898;SDS011;64576;50.460;4.866;2023-01-01T14:26:07;7.75;;;2.15;;
75898;SDS011;64576;50.460;4.866;2023-01-01T14:28:38;7.22;;;2.50;;
75898;SDS011;64576;50.460;4.866;2023-01-01T14:31:11;9.90;;;3.20;;
75898;SDS011;64576;50.460;4.866;2023-01-01T14:33:40;6.30;;;2.50;;
75898;SDS011;64576;50.460;4.866;2023-01-01T14:36:13;10.32;;;3.20;;
75898;SDS011;64576;50.460;4.866;2023-01-01T14:38:44;9.60;;;2.58;;
75898;SDS011;64576;50.460;4.866;2023-01-01T14:41:13;13.35;;;3.10;;
75898;SDS011;64576;50.460;4.866;2023-01-01T14:43:44;12.10;;;3.22;;
75898;SDS011;64576;50.460;4.866;2023-01-01T14:46:14;8.45;;;3.05;;
75898;SDS011;64576;50.460;4.866;2023-01-01T14:48:43;13.02;;;3.67;;
75898;SDS011;64576;50.460;4.866;2023-01-01T14:51:20;10.38;;;2.70;;
75898;SDS011;64576;50.460;4.866;2023-01-01T14:53:47;12.13;;;3.50;;
75898;SDS011;64576;50.460;4.866;2023-01-01T14:56:25;7.20;;;3.10;;
75898;SDS011;64576;50.460;4.866;2023-01-01T14:58:52;8.10;;;3.03;;
75898;SDS011;64576;50.460;4.866;2023-01-01T15:01:23;6.13;;;2.67;;
75898;SDS011;64576;50.460;4.866;2023-01-01T15:03:57;7.53;;;3.05;;
75898;SDS011;64576;50.460;4.866;2023-01-01T15:06:24;10.35;;;3.35;;
75898;SDS011;64576;50.460;4.866;2023-01-01T15:08:51;12.70;;;2.67;;
75898;SDS011;64576;50.460;4.866;2023-01-01T15:11:19;8.80;;;3.05;;
75898;SDS011;64576;50.460;4.866;2023-01-01T15:13:58;8.32;;;2.67;;
75898;SDS011;64576;50.460;4.866;2023-01-01T15:16:25;11.45;;;3.85;;
75898;SDS011;64576;50.460;4.866;2023-01-01T15:18:52;12.55;;;3.33;;
75898;SDS011;64576;50.460;4.866;2023-01-01T15:23:59;12.30;;;4.38;;
75898;SDS011;64576;50.460;4.866;2023-01-01T15:28:57;12.05;;;3.50;;
75898;SDS011;64576;50.460;4.866;2023-01-01T15:34:18;9.43;;;3.85;;
75898;SDS011;64576;50.460;4.866;2023-01-01T15:36:49;10.90;;;4.25;;
75898;SDS011;64576;50.460;4.866;2023-01-01T15:39:19;10.93;;;4.03;;
75898;SDS011;64576;50.460;4.866;2023-01-01T15:41:46;12.02;;;4.43;;
75898;SDS011;64576;50.460;4.866;2023-01-01T15:46:48;8.85;;;5.18;;
75898;SDS011;64576;50.460;4.866;2023-01-01T15:49:26;9.17;;;3.63;;
75898;SDS011;64576;50.460;4.866;2023-01-01T15:52:01;8.77;;;4.25;;
75898;SDS011;64576;50.460;4.866;2023-01-01T15:54:31;8.57;;;3.92;;
75898;SDS011;64576;50.460;4.866;2023-01-01T15:57:02;9.10;;;3.13;;
75898;SDS011;64576;50.460;4.866;2023-01-01T15:59:50;11.32;;;4.75;;
75898;SDS011;64576;50.460;4.866;2023-01-01T16:02:26;12.88;;;4.53;;
75898;SDS011;64576;50.460;4.866;2023-01-01T16:05:11;8.68;;;3.60;;
75898;SDS011;64576;50.460;4.866;2023-01-01T16:07:41;12.55;;;4.63;;
75898;SDS011;64576;50.460;4.866;2023-01-01T16:10:14;15.10;;;5.70;;
75898;SDS011;64576;50.460;4.866;2023-01-01T16:12:44;7.35;;;4.07;;
75898;SDS011;64576;50.460;4.866;2023-01-01T16:15:14;9.75;;;4.13;;
75898;SDS011;64576;50.460;4.866;2023-01-01T16:17:45;13.25;;;4.05;;
75898;SDS011;64576;50.460;4.866;2023-01-01T16:20:17;12.65;;;3.92;;
75898;SDS011;64576;50.460;4.866;2023-01-01T16:22:47;9.30;;;3.60;;
75898;SDS011;64576;50.460;4.866;2023-01-01T16:25:14;10.10;;;4.32;;
75898;SDS011;64576;50.460;4.866;2023-01-01T16:27:42;11.63;;;5.45;;
75898;SDS011;64576;50.460;4.866;2023-01-01T16:30:10;8.93;;;4.30;;
75898;SDS011;64576;50.460;4.866;2023-01-01T16:32:38;13.32;;;5.80;;
75898;SDS011;64576;50.460;4.866;2023-01-01T16:35:05;9.45;;;4.38;;
75898;SDS011;64576;50.460;4.866;2023-01-01T16:37:37;10.25;;;4.88;;
75898;SDS011;64576;50.460;4.866;2023-01-01T16:40:04;11.65;;;5.20;;
75898;SDS011;64576;50.460;4.866;2023-01-01T16:42:32;9.75;;;4.75;;
75898;SDS011;64576;50.460;4.866;2023-01-01T16:44:59;11.00;;;5.20;;
75898;SDS011;64576;50.460;4.866;2023-01-01T16:47:25;8.82;;;5.75;;
75898;SDS011;64576;50.460;4.866;2023-01-01T16:49:51;10.50;;;4.10;;
75898;SDS011;64576;50.460;4.866;2023-01-01T16:52:17;10.70;;;5.28;;
75898;SDS011;64576;50.460;4.866;2023-01-01T16:54:43;10.02;;;4.65;;
75898;SDS011;64576;50.460;4.866;2023-01-01T16:57:10;12.73;;;5.50;;
75898;SDS011;64576;50.460;4.866;2023-01-01T16:59:38;7.97;;;4.68;;
75898;SDS011;64576;50.460;4.866;2023-01-01T17:02:07;11.68;;;5.32;;
75898;SDS011;64576;50.460;4.866;2023-01-01T17:04:35;12.65;;;7.43;;
75898;SDS011;64576;50.460;4.866;2023-01-01T17:07:02;13.32;;;6.05;;
75898;SDS011;64576;50.460;4.866;2023-01-01T17:09:32;14.82;;;5.65;;
75898;SDS011;64576;50.460;4.866;2023-01-01T17:12:03;17.70;;;8.38;;
75898;SDS011;64576;50.460;4.866;2023-01-01T17:14:29;15.10;;;6.90;;
75898;SDS011;64576;50.460;4.866;2023-01-01T17:16:56;15.02;;;9.05;;
75898;SDS011;64576;50.460;4.866;2023-01-01T17:19:21;13.30;;;6.00;;
75898;SDS011;64576;50.460;4.866;2023-01-01T17:21:49;16.02;;;9.55;;